sensor_id;sensor_type;location;lat;lon;timestamp;pressure;altitude;pressure_sealevel;temperature;humidity
71974;BME280;59840;52.122;5.404;2023-04-25T00:00:01;101211.03;;;4.81;100.00
71974;BME280;59840;52.122;5.404;2023-04-25T00:02:27;101214.63;;;4.80;100.00
71974;BME280;59840;52.122;5.404;2023-04-25T00:04:54;101212.38;;;4.70;100.00
71974;BME280;59840;52.122;5.404;2023-04-25T00:07:26;101225.47;;;4.70;100.00
71974;BME280;59840;52.122;5.404;2023-04-25T00:09:54;101222.25;;;4.75;100.00
71974;BME280;59840;52.122;5.404;2023-04-25T00:12:21;101226.31;;;4.84;100.00
71974;BME280;59840;52.122;5.404;2023-04-25T00:14:49;101231.31;;;4.85;100.00
71974;BME280;59840;52.122;5.404;2023-04-25T00:17:19;101226.50;;;4.89;100.00
71974;BME280;59840;52.122;5.404;2023-04-25T00:19:45;101231.16;;;4.93;100.00
71974;BME280;59840;52.122;5.404;2023-04-25T00:22:13;101232.56;;;4.96;100.00
71974;BME280;59840;52.122;5.404;2023-04-25T00:24:40;101237.59;;;4.97;100.00
71974;BME280;59840;52.122;5.404;2023-04-25T00:27:06;101239.63;;;5.02;100.00
71974;BME280;59840;52.122;5.404;2023-04-25T00:29:33;101226.34;;;5.03;100.00
71974;BME280;59840;52.122;5.404;2023-04-25T00:32:00;101229.16;;;5.02;100.00
71974;BME280;59840;52.122;5.404;2023-04-25T00:34:29;101239.63;;;5.02;100.00
71974;BME280;59840;52.122;5.404;2023-04-25T00:36:56;101237.03;;;5.09;100.00
71974;BME280;59840;52.122;5.404;2023-04-25T00:39:24;101228.78;;;5.12;100.00
71974;BME280;59840;52.122;5.404;2023-04-25T00:41:51;101236.44;;;5.13;100.00
71974;BME280;59840;52.122;5.404;2023-04-25T00:44:20;101237.66;;;5.17;100.00
71974;BME280;59840;52.122;5.404;2023-04-25T00:46:50;101240.88;;;5.19;100.00
71974;BME280;59840;52.122;5.404;2023-04-25T00:49:16;101239.28;;;5.18;100.00
71974;BME280;59840;52.122;5.404;2023-04-25T00:51:43;101239.28;;;5.18;100.00
71974;BME280;59840;52.122;5.404;2023-04-25T00:54:15;101246.28;;;5.11;100.00
71974;BME280;59840;52.122;5.404;2023-04-25T00:56:42;101242.28;;;5.15;100.00
71974;BME280;59840;52.122;5.404;2023-04-25T00:59:09;101237.44;;;5.12;100.00
71974;BME280;59840;52.122;5.404;2023-04-25T01:01:36;101234.63;;;5.07;100.00
71974;BME280;59840;52.122;5.404;2023-04-25T01:04:04;101232.59;;;5.02;100.00
71974;BME280;59840;52.122;5.404;2023-04-25T01:06:32;101232.78;;;5.01;100.00
71974;BME280;59840;52.122;5.404;2023-04-25T01:08:59;101233.97;;;4.98;100.00
71974;BME280;59840;52.122;5.404;2023-04-25T01:11:26;101237.59;;;4.97;100.00
71974;BME280;59840;52.122;5.404;2023-04-25T01:13:52;101239.38;;;4.90;100.00
71974;BME280;59840;52.122;5.404;2023-04-25T01:16:19;101244.41;;;4.85;100.00
71974;BME280;59840;52.122;5.404;2023-04-25T01:18:51;101243.41;;;4.80;100.00
71974;BME280;59840;52.122;5.404;2023-04-25T01:21:17;101248.19;;;4.76;100.00
71974;BME280;59840;52.122;5.404;2023-04-25T01:23:44;101251.16;;;4.66;100.00
71974;BME280;59840;52.122;5.404;2023-04-25T01:26:12;101249.13;;;4.62;100.00
71974;BME280;59840;52.122;5.404;2023-04-25T01:28:39;101253.72;;;4.53;100.00
71974;BME280;59840;52.122;5.404;2023-04-25T01:31:10;101261.56;;;4.47;100.00
71974;BME280;59840;52.122;5.404;2023-04-25T01:33:37;101259.94;;;4.46;100.00
71974;BME280;59840;52.122;5.404;2023-04-25T01:36:04;101263.50;;;4.38;100.00
71974;BME280;59840;52.122;5.404;2023-04-25T01:38:31;101257.47;;;4.37;100.00
71974;BME280;59840;52.122;5.404;2023-04-25T01:40:58;101261.03;;;4.30;100.00
71974;BME280;59840;52.122;5.404;2023-04-25T01:43:25;101264.84;;;4.27;100.00
71974;BME280;59840;52.122;5.404;2023-04-25T01:45:53;101265.03;;;4.26;100.00
71974;BME280;59840;52.122;5.404;2023-04-25T01:48:19;101264.22;;;4.25;100.00
71974;BME280;59840;52.122;5.404;2023-04-25T01:50:47;101273.69;;;4.26;100.00
71974;BME280;59840;52.122;5.404;2023-04-25T01:53:17;101275.88;;;4.23;100.00
71974;BME280;59840;52.122;5.404;2023-04-25T01:55:44;101268.22;;;4.21;100.00
71974;BME280;59840;52.122;5.404;2023-04-25T01:58:11;101283.28;;;4.19;100.00
71974;BME280;59840;52.122;5.404;2023-04-25T02:00:39;101279.03;;;4.12;100.00
71974;BME280;59840;52.122;5.404;2023-04-25T02:03:08;101281.63;;;4.12;100.00
71974;BME280;59840;52.122;5.404;2023-04-25T02:05:36;101281.63;;;4.12;100.00
71974;BME280;59840;52.122;5.404;2023-04-25T02:08:05;101286.44;;;4.08;100.00
71974;BME280;59840;52.122;5.404;2023-04-25T02:10:35;101285.00;;;4.06;100.00
71974;BME280;59840;52.122;5.404;2023-04-25T02:13:02;101285.00;;;4.06;100.00
71974;BME280;59840;52.122;5.404;2023-04-25T02:15:33;101283.41;;;4.04;100.00
71974;BME280;59840;52.122;5.404;2023-04-25T02:18:00;101287.00;;;4.03;100.00
71974;BME280;59840;52.122;5.404;2023-04-25T02:20:27;101285.38;;;4.02;100.00
71974;BME280;59840;52.122;5.404;2023-04-25T02:22:55;101281.53;;;3.98;100.00
71974;BME280;59840;52.122;5.404;2023-04-25T02:25:22;101290.19;;;3.99;100.00
71974;BME280;59840;52.122;5.404;2023-04-25T02:27:49;101287.75;;;3.97;100.00
71974;BME280;59840;52.122;5.404;2023-04-25T02:30:20;101281.28;;;3.93;100.00
71974;BME280;59840;52.122;5.404;2023-04-25T02:32:47;101296.16;;;3.93;100.00
71974;BME280;59840;52.122;5.404;2023-04-25T02:35:13;101289.06;;;3.87;100.00
71974;BME280;59840;52.122;5.404;2023-04-25T02:37:40;101286.03;;;3.83;100.00
71974;BME280;59840;52.122;5.404;2023-04-25T02:40:07;101289.63;;;3.82;100.00
71974;BME280;59840;52.122;5.404;2023-04-25T02:42:34;101292.03;;;3.77;100.00
71974;BME280;59840;52.122;5.404;2023-04-25T02:45:01;101299.47;;;3.80;100.00
71974;BME280;59840;52.122;5.404;2023-04-25T02:47:28;101296.47;;;3.83;100.00
71974;BME280;59840;52.122;5.404;2023-04-25T02:49:55;101288.25;;;3.86;100.00
71974;BME280;59840;52.122;5.404;2023-04-25T02:52:21;101294.34;;;3.93;100.00
71974;BME280;59840;52.122;5.404;2023-04-25T02:54:48;101299.56;;;3.93;100.00
71974;BME280;59840;52.122;5.404;2023-04-25T02:57:15;101296.16;;;3.93;100.00
71974;BME280;59840;52.122;5.404;2023-04-25T02:59:41;101286.13;;;3.96;100.00
71974;BME280;59840;52.122;5.404;2023-04-25T03:02:09;101301.00;;;3.96;100.00
71974;BME280;59840;52.122;5.404;2023-04-25T03:04:36;101297.38;;;3.97;100.00
71974;BME280;59840;52.122;5.404;2023-04-25T03:07:03;101296.59;;;3.96;100.00
71974;BME280;59840;52.122;5.404;2023-04-25T03:09:30;101298.56;;;3.94;100.00
71974;BME280;59840;52.122;5.404;2023-04-25T03:11:57;101298.75;;;3.93;100.00
71974;BME280;59840;52.122;5.404;2023-04-25T03:14:23;101295.53;;;3.91;100.00
71974;BME280;59840;52.122;5.404;2023-04-25T03:16:50;101305.34;;;3.89;100.00
71974;BME280;59840;52.122;5.404;2023-04-25T03:19:16;101309.31;;;3.85;100.00
71974;BME280;59840;52.122;5.404;2023-04-25T03:21:44;101310.91;;;3.79;100.00
71974;BME280;59840;52.122;5.404;2023-04-25T03:24:10;101314.47;;;3.72;100.00
71974;BME280;59840;52.122;5.404;2023-04-25T03:26:38;101313.28;;;3.74;100.00
71974;BME280;59840;52.122;5.404;2023-04-25T03:29:04;101313.66;;;3.71;100.00
71974;BME280;59840;52.122;5.404;2023-04-25T03:31:31;101310.84;;;3.73;100.00
71974;BME280;59840;52.122;5.404;2023-04-25T03:33:58;101313.28;;;3.74;100.00
71974;BME280;59840;52.122;5.404;2023-04-25T03:36:24;101315.69;;;3.76;100.00
71974;BME280;59840;52.122;5.404;2023-04-25T03:38:51;101317.75;;;3.80;100.00
71974;BME280;59840;52.122;5.404;2023-04-25T03:41:17;101321.75;;;3.83;100.00
71974;BME280;59840;52.122;5.404;2023-04-25T03:43:44;101318.16;;;3.84;100.00
71974;BME280;59840;52.122;5.404;2023-04-25T03:46:11;101335.25;;;3.86;100.00
71974;BME280;59840;52.122;5.404;2023-04-25T03:48:37;101329.84;;;3.88;100.00
71974;BME280;59840;52.122;5.404;2023-04-25T03:51:04;101331.53;;;3.95;100.00
71974;BME280;59840;52.122;5.404;2023-04-25T03:53:31;101330.94;;;4.00;100.00
71974;BME280;59840;52.122;5.404;2023-04-25T03:55:57;101332.63;;;4.08;100.00
71974;BME280;59840;52.122;5.404;2023-04-25T03:58:24;101332.06;;;4.12;100.00
71974;BME280;59840;52.122;5.404;2023-04-25T04:00:50;101328.06;;;4.16;100.00
71974;BME280;59840;52.122;5.404;2023-04-25T04:03:17;101341.16;;;4.23;100.00
71974;BME280;59840;52.122;5.404;2023-04-25T04:05:44;101333.13;;;4.24;100.00
71974;BME280;59840;52.122;5.404;2023-04-25T04:08:11;101339.78;;;4.27;100.00
71974;BME280;59840;52.122;5.404;2023-04-25T04:10:38;101342.03;;;4.30;100.00
71974;BME280;59840;52.122;5.404;2023-04-25T04:13:04;101342.84;;;4.30;100.00
71974;BME280;59840;52.122;5.404;2023-04-25T04:15:31;101346.63;;;4.28;100.00
71974;BME280;59840;52.122;5.404;2023-04-25T04:17:59;101344.19;;;4.26;100.00
71974;BME280;59840;52.122;5.404;2023-04-25T04:20:29;101348.25;;;4.29;99.99
71974;BME280;59840;52.122;5.404;2023-04-25T04:22:59;101349.28;;;4.34;100.00
71974;BME280;59840;52.122;5.404;2023-04-25T04:25:25;101345.50;;;4.37;98.94
71974;BME280;59840;52.122;5.404;2023-04-25T04:27:52;101351.53;;;4.37;99.12
71974;BME280;59840;52.122;5.404;2023-04-25T04:30:24;101350.34;;;4.40;99.25
71974;BME280;59840;52.122;5.404;2023-04-25T04:32:51;101355.94;;;4.37;99.42
71974;BME280;59840;52.122;5.404;2023-04-25T04:35:18;101355.94;;;4.37;99.18
71974;BME280;59840;52.122;5.404;2023-04-25T04:37:45;101357.56;;;4.38;98.69
71974;BME280;59840;52.122;5.404;2023-04-25T04:40:12;101366.03;;;4.40;98.13
71974;BME280;59840;52.122;5.404;2023-04-25T04:42:42;101363.59;;;4.38;97.46
71974;BME280;59840;52.122;5.404;2023-04-25T04:45:09;101363.59;;;4.38;97.17
71974;BME280;59840;52.122;5.404;2023-04-25T04:47:39;101365.63;;;4.43;96.49
71974;BME280;59840;52.122;5.404;2023-04-25T04:50:08;101370.06;;;4.43;96.47
71974;BME280;59840;52.122;5.404;2023-04-25T04:52:36;101375.72;;;4.46;97.11
71974;BME280;59840;52.122;5.404;2023-04-25T04:55:04;101367.28;;;4.51;97.65
71974;BME280;59840;52.122;5.404;2023-04-25T04:57:32;101372.50;;;4.51;96.69
71974;BME280;59840;52.122;5.404;2023-04-25T04:59:59;101379.97;;;4.54;96.68
71974;BME280;59840;52.122;5.404;2023-04-25T05:02:26;101389.84;;;4.58;97.08
71974;BME280;59840;52.122;5.404;2023-04-25T05:04:52;101393.47;;;4.57;97.00
71974;BME280;59840;52.122;5.404;2023-04-25T05:07:19;101391.66;;;4.58;97.24
71974;BME280;59840;52.122;5.404;2023-04-25T05:09:46;101396.69;;;4.59;97.56
71974;BME280;59840;52.122;5.404;2023-04-25T05:12:12;101406.34;;;4.59;96.79
71974;BME280;59840;52.122;5.404;2023-04-25T05:14:39;101400.31;;;4.58;96.46
71974;BME280;59840;52.122;5.404;2023-04-25T05:17:05;101403.72;;;4.59;96.99
71974;BME280;59840;52.122;5.404;2023-04-25T05:19:34;101402.91;;;4.58;97.05
71974;BME280;59840;52.122;5.404;2023-04-25T05:22:02;101412.19;;;4.61;97.27
71974;BME280;59840;52.122;5.404;2023-04-25T05:24:29;101415.59;;;4.61;97.27
71974;BME280;59840;52.122;5.404;2023-04-25T05:26:56;101423.25;;;4.63;97.71
71974;BME280;59840;52.122;5.404;2023-04-25T05:29:24;101418.47;;;4.66;97.28
71974;BME280;59840;52.122;5.404;2023-04-25T05:31:50;101424.13;;;4.70;96.85
71974;BME280;59840;52.122;5.404;2023-04-25T05:34:17;101420.13;;;4.74;96.89
71974;BME280;59840;52.122;5.404;2023-04-25T05:36:43;101431.00;;;4.78;96.87
71974;BME280;59840;52.122;5.404;2023-04-25T05:39:10;101431.44;;;4.81;96.15
71974;BME280;59840;52.122;5.404;2023-04-25T05:41:37;101428.44;;;4.84;95.88
71974;BME280;59840;52.122;5.404;2023-04-25T05:44:03;101428.84;;;4.88;95.71
71974;BME280;59840;52.122;5.404;2023-04-25T05:46:31;101425.47;;;4.94;95.80
71974;BME280;59840;52.122;5.404;2023-04-25T05:48:57;101433.53;;;4.99;95.53
71974;BME280;59840;52.122;5.404;2023-04-25T05:51:24;101431.16;;;5.04;95.41
71974;BME280;59840;52.122;5.404;2023-04-25T05:53:50;101433.19;;;5.09;95.09
71974;BME280;59840;52.122;5.404;2023-04-25T05:56:17;101438.03;;;5.12;95.43
71974;BME280;59840;52.122;5.404;2023-04-25T05:58:44;101440.28;;;5.21;95.88
71974;BME280;59840;52.122;5.404;2023-04-25T06:01:11;101451.97;;;5.25;95.23
71974;BME280;59840;52.122;5.404;2023-04-25T06:03:38;101448.16;;;5.28;94.56
71974;BME280;59840;52.122;5.404;2023-04-25T06:06:05;101453.06;;;5.37;94.34
71974;BME280;59840;52.122;5.404;2023-04-25T06:08:32;101465.38;;;5.44;94.58
71974;BME280;59840;52.122;5.404;2023-04-25T06:10:59;101461.97;;;5.50;94.27
71974;BME280;59840;52.122;5.404;2023-04-25T06:13:25;101465.59;;;5.55;93.33
71974;BME280;59840;52.122;5.404;2023-04-25T06:15:52;101472.47;;;5.63;91.94
71974;BME280;59840;52.122;5.404;2023-04-25T06:18:18;101472.09;;;5.66;92.08
71974;BME280;59840;52.122;5.404;2023-04-25T06:20:45;101472.72;;;5.75;92.58
71974;BME280;59840;52.122;5.404;2023-04-25T06:23:12;101463.69;;;5.77;92.21
71974;BME280;59840;52.122;5.404;2023-04-25T06:25:39;101462.88;;;5.83;91.33
71974;BME280;59840;52.122;5.404;2023-04-25T06:28:05;101466.13;;;5.85;90.54
71974;BME280;59840;52.122;5.404;2023-04-25T06:30:32;101471.16;;;5.87;90.00
71974;BME280;59840;52.122;5.404;2023-04-25T06:32:58;101476.22;;;5.95;89.68
71974;BME280;59840;52.122;5.404;2023-04-25T06:35:25;101476.50;;;6.20;89.02
71974;BME280;59840;52.122;5.404;2023-04-25T06:37:52;101480.75;;;6.87;87.83
71974;BME280;59840;52.122;5.404;2023-04-25T06:40:18;101483.97;;;6.76;87.05
71974;BME280;59840;52.122;5.404;2023-04-25T06:42:45;101479.53;;;6.63;87.00
71974;BME280;59840;52.122;5.404;2023-04-25T06:45:11;101480.16;;;6.58;87.89
71974;BME280;59840;52.122;5.404;2023-04-25T06:47:38;101486.41;;;6.57;88.13
71974;BME280;59840;52.122;5.404;2023-04-25T06:50:05;101492.06;;;6.54;86.59
71974;BME280;59840;52.122;5.404;2023-04-25T06:52:32;101492.84;;;6.48;85.54
71974;BME280;59840;52.122;5.404;2023-04-25T06:55:01;101496.28;;;6.42;84.74
71974;BME280;59840;52.122;5.404;2023-04-25T06:57:29;101494.88;;;6.46;85.60
71974;BME280;59840;52.122;5.404;2023-04-25T06:59:55;101490.44;;;6.47;85.16
71974;BME280;59840;52.122;5.404;2023-04-25T07:02:22;101502.53;;;6.54;84.34
71974;BME280;59840;52.122;5.404;2023-04-25T07:04:49;101500.91;;;6.60;84.58
71974;BME280;59840;52.122;5.404;2023-04-25T07:07:16;101509.00;;;6.58;82.34
71974;BME280;59840;52.122;5.404;2023-04-25T07:09:43;101502.53;;;6.61;84.22
71974;BME280;59840;52.122;5.404;2023-04-25T07:12:09;101514.25;;;6.58;82.80
71974;BME280;59840;52.122;5.404;2023-04-25T07:14:36;101521.50;;;6.56;82.65
71974;BME280;59840;52.122;5.404;2023-04-25T07:17:02;101517.06;;;6.57;82.60
71974;BME280;59840;52.122;5.404;2023-04-25T07:19:29;101514.84;;;6.54;83.19
71974;BME280;59840;52.122;5.404;2023-04-25T07:21:56;101525.94;;;6.56;83.90
71974;BME280;59840;52.122;5.404;2023-04-25T07:24:22;101533.22;;;6.87;82.75
71974;BME280;59840;52.122;5.404;2023-04-25T07:26:49;101528.94;;;7.19;80.83
71974;BME280;59840;52.122;5.404;2023-04-25T07:29:16;101535.53;;;7.41;77.55
71974;BME280;59840;52.122;5.404;2023-04-25T07:31:42;101530.06;;;7.43;78.34
71974;BME280;59840;52.122;5.404;2023-04-25T07:34:09;101540.78;;;7.48;79.08
71974;BME280;59840;52.122;5.404;2023-04-25T07:36:36;101538.75;;;7.50;80.07
71974;BME280;59840;52.122;5.404;2023-04-25T07:39:03;101536.94;;;7.50;79.32
71974;BME280;59840;52.122;5.404;2023-04-25T07:41:29;101538.16;;;7.48;77.87
71974;BME280;59840;52.122;5.404;2023-04-25T07:43:56;101549.88;;;7.38;75.58
71974;BME280;59840;52.122;5.404;2023-04-25T07:46:23;101549.06;;;7.45;79.40
71974;BME280;59840;52.122;5.404;2023-04-25T07:48:50;101549.66;;;7.47;75.41
71974;BME280;59840;52.122;5.404;2023-04-25T07:51:17;101549.47;;;7.42;75.19
71974;BME280;59840;52.122;5.404;2023-04-25T07:53:46;101552.69;;;7.50;75.17
71974;BME280;59840;52.122;5.404;2023-04-25T07:56:15;101555.91;;;7.59;75.30
71974;BME280;59840;52.122;5.404;2023-04-25T07:58:42;101562.94;;;7.65;75.40
71974;BME280;59840;52.122;5.404;2023-04-25T08:01:08;101563.53;;;7.67;73.21
71974;BME280;59840;52.122;5.404;2023-04-25T08:03:35;101560.50;;;7.63;73.70
71974;BME280;59840;52.122;5.404;2023-04-25T08:06:02;101568.56;;;7.75;70.87
71974;BME280;59840;52.122;5.404;2023-04-25T08:08:33;101573.38;;;7.91;72.43
71974;BME280;59840;52.122;5.404;2023-04-25T08:11:00;101575.13;;;7.97;72.75
71974;BME280;59840;52.122;5.404;2023-04-25T08:13:26;101575.53;;;8.01;74.14
71974;BME280;59840;52.122;5.404;2023-04-25T08:15:53;101584.16;;;8.15;72.67
71974;BME280;59840;52.122;5.404;2023-04-25T08:18:20;101578.50;;;8.18;72.39
71974;BME280;59840;52.122;5.404;2023-04-25T08:20:46;101579.69;;;8.22;74.75
71974;BME280;59840;52.122;5.404;2023-04-25T08:23:13;101603.78;;;8.12;72.85
71974;BME280;59840;52.122;5.404;2023-04-25T08:25:40;101613.03;;;7.63;68.92
71974;BME280;59840;52.122;5.404;2023-04-25T08:28:07;101611.88;;;6.93;72.68
71974;BME280;59840;52.122;5.404;2023-04-25T08:30:33;101620.50;;;6.48;77.67
71974;BME280;59840;52.122;5.404;2023-04-25T08:33:00;101612.41;;;6.36;76.72
71974;BME280;59840;52.122;5.404;2023-04-25T08:35:26;101613.97;;;6.30;77.31
71974;BME280;59840;52.122;5.404;2023-04-25T08:37:53;101616.25;;;6.40;76.60
71974;BME280;59840;52.122;5.404;2023-04-25T08:40:22;101624.16;;;6.53;75.37
71974;BME280;59840;52.122;5.404;2023-04-25T08:42:53;101626.78;;;6.66;76.23
71974;BME280;59840;52.122;5.404;2023-04-25T08:45:20;101625.19;;;6.79;75.37
71974;BME280;59840;52.122;5.404;2023-04-25T08:47:47;101622.81;;;6.90;73.19
71974;BME280;59840;52.122;5.404;2023-04-25T08:50:16;101613.72;;;6.93;72.86
71974;BME280;59840;52.122;5.404;2023-04-25T08:52:44;101625.81;;;6.94;72.25
71974;BME280;59840;52.122;5.404;2023-04-25T08:55:12;101628.03;;;7.03;73.06
71974;BME280;59840;52.122;5.404;2023-04-25T08:57:41;101627.22;;;7.36;73.69
71974;BME280;59840;52.122;5.404;2023-04-25T09:00:12;101638.69;;;7.74;72.73
71974;BME280;59840;52.122;5.404;2023-04-25T09:02:39;101640.47;;;7.94;70.66
71974;BME280;59840;52.122;5.404;2023-04-25T09:05:07;101646.16;;;7.84;69.32
71974;BME280;59840;52.122;5.404;2023-04-25T09:07:36;101649.78;;;7.83;68.72
71974;BME280;59840;52.122;5.404;2023-04-25T09:10:03;101651.38;;;7.91;70.59
71974;BME280;59840;52.122;5.404;2023-04-25T09:12:29;101654.56;;;7.99;69.41
71974;BME280;59840;52.122;5.404;2023-04-25T09:15:08;101650.63;;;8.35;69.77
71974;BME280;59840;52.122;5.404;2023-04-25T09:17:35;101657.38;;;8.62;68.33
71974;BME280;59840;52.122;5.404;2023-04-25T09:20:11;101663.13;;;8.84;68.21
71974;BME280;59840;52.122;5.404;2023-04-25T09:22:38;101652.56;;;8.91;66.00
71974;BME280;59840;52.122;5.404;2023-04-25T09:25:10;101672.69;;;8.72;65.83
71974;BME280;59840;52.122;5.404;2023-04-25T09:27:49;101668.38;;;8.46;66.96
71974;BME280;59840;52.122;5.404;2023-04-25T09:30:16;101676.31;;;8.33;67.18
71974;BME280;59840;52.122;5.404;2023-04-25T09:32:46;101672.63;;;8.47;69.36
71974;BME280;59840;52.122;5.404;2023-04-25T09:35:23;101675.59;;;8.64;68.21
71974;BME280;59840;52.122;5.404;2023-04-25T09:37:51;101677.44;;;8.63;67.52
71974;BME280;59840;52.122;5.404;2023-04-25T09:40:18;101689.38;;;8.59;66.79
71974;BME280;59840;52.122;5.404;2023-04-25T09:42:44;101681.53;;;8.46;66.38
71974;BME280;59840;52.122;5.404;2023-04-25T09:45:12;101700.19;;;8.31;67.72
71974;BME280;59840;52.122;5.404;2023-04-25T09:47:39;101717.28;;;7.96;69.25
71974;BME280;59840;52.122;5.404;2023-04-25T09:50:14;101709.63;;;7.55;71.43
71974;BME280;59840;52.122;5.404;2023-04-25T09:52:41;101706.19;;;7.41;74.95
71974;BME280;59840;52.122;5.404;2023-04-25T09:55:08;101732.03;;;7.37;72.77
71974;BME280;59840;52.122;5.404;2023-04-25T09:57:35;101744.97;;;7.32;72.64
71974;BME280;59840;52.122;5.404;2023-04-25T10:00:02;101727.78;;;7.36;72.41
71974;BME280;59840;52.122;5.404;2023-04-25T10:02:31;101727.81;;;7.50;72.55
71974;BME280;59840;52.122;5.404;2023-04-25T10:05:00;101731.84;;;7.52;73.11
71974;BME280;59840;52.122;5.404;2023-04-25T10:07:30;101732.44;;;7.67;72.81
71974;BME280;59840;52.122;5.404;2023-04-25T10:10:02;101734.66;;;7.97;74.22
71974;BME280;59840;52.122;5.404;2023-04-25T10:12:31;101745.94;;;8.11;71.11
71974;BME280;59840;52.122;5.404;2023-04-25T10:14:59;101734.41;;;8.05;68.08
71974;BME280;59840;52.122;5.404;2023-04-25T10:17:27;101737.25;;;8.03;69.10
71974;BME280;59840;52.122;5.404;2023-04-25T10:19:57;101725.72;;;8.18;66.56
71974;BME280;59840;52.122;5.404;2023-04-25T10:22:36;101730.53;;;8.34;66.42
71974;BME280;59840;52.122;5.404;2023-04-25T10:25:04;101722.25;;;8.30;62.09
71974;BME280;59840;52.122;5.404;2023-04-25T10:27:32;101729.47;;;8.48;66.39
71974;BME280;59840;52.122;5.404;2023-04-25T10:30:04;101730.38;;;8.73;68.59
71974;BME280;59840;52.122;5.404;2023-04-25T10:32:35;101733.22;;;8.72;60.73
71974;BME280;59840;52.122;5.404;2023-04-25T10:38:17;101721.13;;;8.64;61.28
71974;BME280;59840;52.122;5.404;2023-04-25T10:41:02;101732.47;;;8.65;62.85
71974;BME280;59840;52.122;5.404;2023-04-25T10:43:37;101723.75;;;8.64;60.87
71974;BME280;59840;52.122;5.404;2023-04-25T10:46:26;101723.88;;;8.76;62.09
71974;BME280;59840;52.122;5.404;2023-04-25T10:48:55;101728.72;;;8.79;60.79
71974;BME280;59840;52.122;5.404;2023-04-25T10:54:05;101722.47;;;8.73;59.98
71974;BME280;59840;52.122;5.404;2023-04-25T10:56:41;101728.31;;;8.82;62.05
71974;BME280;59840;52.122;5.404;2023-04-25T10:59:17;101724.63;;;8.90;62.75
71974;BME280;59840;52.122;5.404;2023-04-25T11:01:47;101727.88;;;8.92;61.76
71974;BME280;59840;52.122;5.404;2023-04-25T11:09:38;101730.97;;;8.76;60.94
71974;BME280;59840;52.122;5.404;2023-04-25T11:12:08;101740.59;;;8.57;65.57
71974;BME280;59840;52.122;5.404;2023-04-25T11:14:35;101755.84;;;8.22;68.61
71974;BME280;59840;52.122;5.404;2023-04-25T11:17:02;101750.81;;;8.00;72.25
71974;BME280;59840;52.122;5.404;2023-04-25T11:19:29;101764.13;;;8.05;73.07
71974;BME280;59840;52.122;5.404;2023-04-25T11:21:57;101769.63;;;7.84;74.40
71974;BME280;59840;52.122;5.404;2023-04-25T11:24:31;101773.47;;;7.49;74.53
71974;BME280;59840;52.122;5.404;2023-04-25T11:26:59;101771.59;;;7.29;74.64
71974;BME280;59840;52.122;5.404;2023-04-25T11:29:30;101781.47;;;7.14;75.94
71974;BME280;59840;52.122;5.404;2023-04-25T11:31:57;101772.16;;;7.05;75.80
71974;BME280;59840;52.122;5.404;2023-04-25T11:34:28;101781.66;;;7.06;76.93
71974;BME280;59840;52.122;5.404;2023-04-25T11:36:57;101771.38;;;7.11;77.33
71974;BME280;59840;52.122;5.404;2023-04-25T11:39:24;101770.59;;;7.17;77.31
71974;BME280;59840;52.122;5.404;2023-04-25T11:41:52;101773.25;;;7.24;71.61
71974;BME280;59840;52.122;5.404;2023-04-25T11:44:19;101775.66;;;7.38;71.54
71974;BME280;59840;52.122;5.404;2023-04-25T11:46:46;101777.53;;;7.58;71.36
71974;BME280;59840;52.122;5.404;2023-04-25T11:49:15;101779.53;;;7.82;70.96
71974;BME280;59840;52.122;5.404;2023-04-25T11:51:46;101770.63;;;8.03;68.20
71974;BME280;59840;52.122;5.404;2023-04-25T11:54:14;101779.91;;;8.12;67.77
71974;BME280;59840;52.122;5.404;2023-04-25T11:56:45;101779.50;;;8.22;68.66
71974;BME280;59840;52.122;5.404;2023-04-25T11:59:12;101773.22;;;8.36;67.22
71974;BME280;59840;52.122;5.404;2023-04-25T12:01:40;101779.47;;;8.42;67.79
71974;BME280;59840;52.122;5.404;2023-04-25T12:04:21;101765.66;;;8.59;67.20
71974;BME280;59840;52.122;5.404;2023-04-25T12:06:51;101785.75;;;8.98;66.16
71974;BME280;59840;52.122;5.404;2023-04-25T12:09:29;101773.53;;;9.04;63.75
71974;BME280;59840;52.122;5.404;2023-04-25T12:11:58;101771.59;;;8.93;65.51
71974;BME280;59840;52.122;5.404;2023-04-25T12:14:27;101785.59;;;8.87;65.37
71974;BME280;59840;52.122;5.404;2023-04-25T12:17:04;101784.38;;;8.83;63.31
71974;BME280;59840;52.122;5.404;2023-04-25T12:19:35;101791.88;;;8.79;65.13
71974;BME280;59840;52.122;5.404;2023-04-25T12:22:02;101787.25;;;8.68;62.46
71974;BME280;59840;52.122;5.404;2023-04-25T12:24:33;101800.63;;;8.66;62.88
71974;BME280;59840;52.122;5.404;2023-04-25T12:27:05;101800.41;;;8.74;63.34
71974;BME280;59840;52.122;5.404;2023-04-25T12:29:34;101795.13;;;8.74;63.51
71974;BME280;59840;52.122;5.404;2023-04-25T12:32:15;101800.41;;;8.74;61.98
71974;BME280;59840;52.122;5.404;2023-04-25T12:34:42;101800.00;;;8.71;62.31
71974;BME280;59840;52.122;5.404;2023-04-25T12:37:08;101806.13;;;8.65;62.28
71974;BME280;59840;52.122;5.404;2023-04-25T12:39:35;101805.84;;;8.80;65.28
71974;BME280;59840;52.122;5.404;2023-04-25T12:42:01;101800.88;;;9.03;62.44
71974;BME280;59840;52.122;5.404;2023-04-25T12:44:30;101797.91;;;8.93;60.67
71974;BME280;59840;52.122;5.404;2023-04-25T12:46:57;101807.44;;;8.94;59.88
71974;BME280;59840;52.122;5.404;2023-04-25T12:49:24;101791.81;;;8.99;63.30
71974;BME280;59840;52.122;5.404;2023-04-25T12:51:51;101795.94;;;8.82;59.47
71974;BME280;59840;52.122;5.404;2023-04-25T12:54:18;101800.78;;;8.85;64.05
71974;BME280;59840;52.122;5.404;2023-04-25T12:56:44;101789.28;;;9.17;61.52
71974;BME280;59840;52.122;5.404;2023-04-25T12:59:12;101785.47;;;9.38;59.91
71974;BME280;59840;52.122;5.404;2023-04-25T13:01:38;101801.13;;;9.64;59.54
71974;BME280;59840;52.122;5.404;2023-04-25T13:04:05;101788.47;;;9.73;60.22
71974;BME280;59840;52.122;5.404;2023-04-25T13:06:32;101791.19;;;9.66;57.90
71974;BME280;59840;52.122;5.404;2023-04-25T13:08:58;101780.56;;;9.48;56.86
71974;BME280;59840;52.122;5.404;2023-04-25T13:11:25;101794.41;;;9.37;57.72